This is the latest recevied weather packets stored in our database for station/object EB1BCG-1. If no packets are shown the sender has not sent any weather packets the latest 10 day(s).
| Time | Temp. | Humidity | Pressure | Rain* | Wind** | Luminosity | Snow |
|---|---|---|---|---|---|---|---|
| 1777574481 | 14.44° C | 53% | 1016.3 hPa | 0 mm | 0 m/s | - | - |
| 1777573879 | 15° C | 52% | 1016.2 hPa | 0 mm | 0 m/s | - | - |
| 1777573268 | 16.11° C | 50% | 1016.1 hPa | 0 mm | 0 m/s | - | - |
| 1777572662 | 16.11° C | 50% | 1016 hPa | 0 mm | 0 m/s | - | - |
| 1777572062 | 16.67° C | 50% | 1016 hPa | 0 mm | 0 m/s | - | - |
| 1777571448 | 17.22° C | 49% | 1015.9 hPa | 0 mm | 0 m/s | - | - |
| 1777570842 | 17.22° C | 49% | 1015.9 hPa | 0 mm | 0 m/s | - | - |
| 1777570239 | 17.78° C | 51% | 1015.9 hPa | 0 mm | 0 m/s | - | - |
| 1777569629 | 17.78° C | 49% | 1016 hPa | 0 mm | 0 m/s | - | - |
| 1777569023 | 18.33° C | 48% | 1015.9 hPa | 0 mm | 0 m/s | - | - |
| 1777568419 | 18.89° C | 48% | 1015.8 hPa | 0 mm | 0 m/s | - | - |
| 1777567810 | 18.89° C | 47% | 1015.8 hPa | 0 mm | 0 m/s | - | - |
| 1777566599 | 21.67° C | 47% | 1015.6 hPa | 0 mm | 0 m/s | - | - |
| 1777565989 | 20.56° C | 44% | 1015.7 hPa | 0 mm | 0 m/s | - | - |
| 1777565383 | 18.89° C | 44% | 1015.7 hPa | 0 mm | 0 m/s | - | - |
| 1777564779 | 20° C | 44% | 1015.6 hPa | 0 mm | 0 m/s | - | - |
| 1777564170 | 22.22° C | 45% | 1015.6 hPa | 0 mm | 0 m/s | - | - |
| 1777563563 | 20.56° C | 45% | 1015.6 hPa | 0 mm | 0 m/s | - | - |
| 1777562959 | 22.78° C | 42% | 1015.4 hPa | 0 mm | 0 m/s | - | - |
| 1777562351 | 22.22° C | 45% | 1015.5 hPa | 0 mm | 0 m/s | - | - |
| 1777561139 | 22.22° C | 44% | 1015.5 hPa | 0 mm | 0 m/s | - | - |
| 1777560531 | 23.89° C | 47% | 1015.6 hPa | 0 mm | 0 m/s | - | - |
| 1777559923 | 25° C | 47% | 1015.6 hPa | 0 mm | 0 m/s | - | - |
| 1777559319 | 19.44° C | 49% | 1015.7 hPa | 0 mm | 0 m/s | - | - |
| 1777558709 | 20° C | 50% | 1015.8 hPa | 0 mm | 0 m/s | - | - |
* Rain latest hour (hover to see other rain measurements)
** Current wind speed in m/s (hover to see current wind gust speed)